createdAt,value
2022-10-11T00:00:16.771Z,96613.34
2022-10-11T00:02:43.761Z,96617.00
2022-10-11T00:05:11.205Z,96615.69
2022-10-11T00:07:38.924Z,96626.44
2022-10-11T00:10:06.841Z,96623.03
2022-10-11T00:12:34.070Z,96617.50
2022-10-11T00:15:01.082Z,96615.94
2022-10-11T00:17:28.142Z,96620.38
2022-10-11T00:19:55.095Z,96621.19
2022-10-11T00:22:22.321Z,96613.53
2022-10-11T00:24:49.342Z,96615.69
2022-10-11T00:27:16.383Z,96619.03
2022-10-11T00:29:43.443Z,96622.72
2022-10-11T00:32:10.802Z,96622.44
2022-10-11T00:34:37.781Z,96626.66
2022-10-11T00:37:04.942Z,96624.25
2022-10-11T00:39:31.941Z,96617.41
2022-10-11T00:41:59.002Z,96616.56
2022-10-11T00:44:28.722Z,96606.28
2022-10-11T00:47:00.878Z,96614.97
2022-10-11T00:49:39.844Z,96613.38
2022-10-11T00:52:09.281Z,96608.34
2022-10-11T00:54:40.621Z,96607.56
2022-10-11T00:57:13.243Z,96607.06
2022-10-11T00:59:45.681Z,96603.66
2022-10-11T01:02:13.589Z,96597.59
2022-10-11T01:04:42.303Z,96601.00
2022-10-11T01:07:10.509Z,96608.88
2022-10-11T01:09:37.521Z,96607.06
2022-10-11T01:12:12.842Z,96607.63
2022-10-11T01:15:28.082Z,96608.91
2022-10-11T01:18:01.142Z,96606.31
2022-10-11T01:20:49.642Z,96602.16
2022-10-11T01:23:41.501Z,96599.03
2022-10-11T01:26:58.842Z,96602.22
2022-10-11T01:29:44.346Z,96599.88
2022-10-11T01:32:27.021Z,96596.97
2022-10-11T01:34:58.882Z,96601.47
2022-10-11T01:37:46.826Z,96610.16
2022-10-11T01:40:24.200Z,96599.09
2022-10-11T01:42:53.961Z,96598.06
2022-10-11T01:45:22.003Z,96604.13
2022-10-11T01:48:02.063Z,96599.63
2022-10-11T01:50:40.722Z,96593.59
2022-10-11T01:53:45.502Z,96596.50
2022-10-11T01:56:56.542Z,96602.81
2022-10-11T01:59:55.962Z,96604.59
2022-10-11T02:02:56.682Z,96607.00
2022-10-11T02:05:52.481Z,96599.03
2022-10-11T02:08:22.484Z,96604.78
2022-10-11T02:11:02.102Z,96608.47
2022-10-11T02:13:35.842Z,96605.28
2022-10-11T02:16:08.028Z,96611.66
2022-10-11T02:18:41.801Z,96606.41
2022-10-11T02:21:14.423Z,96601.13
2022-10-11T02:23:48.324Z,96607.19
2022-10-11T02:26:16.524Z,96601.66
2022-10-11T02:28:46.323Z,96608.00
2022-10-11T02:31:15.881Z,96614.03
2022-10-11T02:33:48.302Z,96612.13
2022-10-11T02:36:25.085Z,96607.66
2022-10-11T02:38:56.841Z,96616.31
2022-10-11T02:41:29.945Z,96613.88
2022-10-11T02:44:07.281Z,96618.53
2022-10-11T02:46:34.943Z,96619.81
2022-10-11T02:49:02.424Z,96620.81
2022-10-11T02:51:33.408Z,96618.72
2022-10-11T02:54:00.581Z,96626.31
2022-10-11T02:56:27.580Z,96621.84
2022-10-11T02:58:54.610Z,96619.22
2022-10-11T03:01:21.677Z,96620.00
2022-10-11T03:03:48.761Z,96621.28
2022-10-11T03:06:15.705Z,96630.03
2022-10-11T03:08:42.742Z,96623.97
2022-10-11T03:11:09.741Z,96629.78
2022-10-11T03:13:36.762Z,96622.44
2022-10-11T03:16:04.021Z,96624.28
2022-10-11T03:18:31.781Z,96637.72
2022-10-11T03:20:58.909Z,96639.84
2022-10-11T03:23:25.962Z,96634.56
2022-10-11T03:25:52.922Z,96629.84
2022-10-11T03:28:20.415Z,96638.78
2022-10-11T03:30:51.609Z,96638.47
2022-10-11T03:33:19.562Z,96640.25
2022-10-11T03:35:47.765Z,96643.44
2022-10-11T03:38:16.582Z,96646.88
2022-10-11T03:40:44.603Z,96644.25
2022-10-11T03:43:12.403Z,96642.09
2022-10-11T03:45:39.921Z,96637.63
2022-10-11T03:48:07.021Z,96645.75
2022-10-11T03:50:34.140Z,96648.63
2022-10-11T03:53:01.281Z,96639.41
2022-10-11T03:55:28.322Z,96648.09
2022-10-11T03:57:55.423Z,96650.66
2022-10-11T04:00:22.487Z,96652.19
2022-10-11T04:02:49.481Z,96650.59
2022-10-11T04:05:17.001Z,96655.06
2022-10-11T04:07:44.002Z,96655.84
2022-10-11T04:10:11.021Z,96661.69
2022-10-11T04:12:38.862Z,96658.25
2022-10-11T04:15:09.470Z,96658.47
2022-10-11T04:17:36.562Z,96667.16
2022-10-11T04:20:03.908Z,96670.03
2022-10-11T04:22:32.067Z,96672.09
2022-10-11T04:24:59.267Z,96670.19
2022-10-11T04:27:29.675Z,96671.72
2022-10-11T04:29:56.699Z,96675.56
2022-10-11T04:32:23.677Z,96676.84
2022-10-11T04:34:51.581Z,96679.41
2022-10-11T04:37:19.365Z,96681.13
2022-10-11T04:39:46.408Z,96688.63
2022-10-11T04:42:13.455Z,96686.00
2022-10-11T04:44:40.581Z,96684.72
2022-10-11T04:47:07.568Z,96683.47
2022-10-11T04:49:34.745Z,96689.81
2022-10-11T04:52:01.792Z,96686.94
2022-10-11T04:54:28.890Z,96685.81
2022-10-11T04:56:56.032Z,96681.44
2022-10-11T04:59:23.100Z,96694.09
2022-10-11T05:01:50.226Z,96694.91
2022-10-11T05:04:17.283Z,96699.47
2022-10-11T05:06:44.290Z,96695.53
2022-10-11T05:09:11.415Z,96696.03
2022-10-11T05:11:38.390Z,96701.50
2022-10-11T05:14:05.487Z,96696.91
2022-10-11T05:16:32.732Z,96708.94
2022-10-11T05:18:59.669Z,96717.88
2022-10-11T05:21:29.498Z,96716.44
2022-10-11T05:23:57.432Z,96716.09
2022-10-11T05:26:26.520Z,96715.06
2022-10-11T05:28:54.232Z,96715.63
2022-10-11T05:31:21.652Z,96725.66
2022-10-11T05:33:48.892Z,96725.66
2022-10-11T05:36:16.831Z,96720.50
2022-10-11T05:38:44.131Z,96723.16
2022-10-11T05:41:14.032Z,96728.69
2022-10-11T05:43:41.495Z,96727.97
2022-10-11T05:46:08.804Z,96740.06
2022-10-11T05:48:36.280Z,96727.25
2022-10-11T05:51:06.184Z,96733.59
2022-10-11T05:53:33.753Z,96737.59
2022-10-11T05:56:00.880Z,96746.59
2022-10-11T05:58:28.464Z,96741.31
2022-10-11T06:00:57.081Z,96742.28
2022-10-11T06:03:24.207Z,96755.03
2022-10-11T06:05:55.762Z,96748.41
2022-10-11T06:08:23.873Z,96760.72
2022-10-11T06:10:50.829Z,96762.69
2022-10-11T06:13:17.830Z,96763.78
2022-10-11T06:15:44.781Z,96768.34
2022-10-11T06:18:11.770Z,96766.97
2022-10-11T06:20:38.813Z,96770.22
2022-10-11T06:23:05.751Z,96774.13
2022-10-11T06:25:32.770Z,96777.91
2022-10-11T06:27:59.807Z,96775.81
2022-10-11T06:30:26.769Z,96780.97
2022-10-11T06:32:53.736Z,96773.34
2022-10-11T06:35:20.789Z,96785.81
2022-10-11T06:37:47.800Z,96786.66
2022-10-11T06:40:14.828Z,96789.91
2022-10-11T06:42:41.817Z,96792.34
2022-10-11T06:45:09.119Z,96793.28
2022-10-11T06:47:36.150Z,96791.72
2022-10-11T06:50:03.378Z,96790.25
2022-10-11T06:52:30.310Z,96796.72
2022-10-11T06:54:57.279Z,96796.31
2022-10-11T06:57:24.344Z,96795.06
2022-10-11T06:59:51.408Z,96791.22
2022-10-11T07:02:18.343Z,96800.03
2022-10-11T07:04:45.515Z,96795.94
2022-10-11T07:07:15.510Z,96794.72
2022-10-11T07:09:42.640Z,96806.16
2022-10-11T07:12:09.681Z,96809.63
2022-10-11T07:14:36.634Z,96806.81
2022-10-11T07:17:03.694Z,96815.63
2022-10-11T07:19:30.846Z,96811.72
2022-10-11T07:21:57.866Z,96804.91
2022-10-11T07:24:25.003Z,96805.25
2022-10-11T07:26:52.124Z,96816.09
2022-10-11T07:29:19.133Z,96809.25
2022-10-11T07:31:46.138Z,96816.19
2022-10-11T07:34:13.356Z,96813.59
2022-10-11T07:36:40.451Z,96817.31
2022-10-11T07:39:08.539Z,96817.06
2022-10-11T07:41:35.762Z,96811.56
2022-10-11T07:44:03.502Z,96814.00
2022-10-11T07:46:30.998Z,96817.72
2022-10-11T07:48:58.335Z,96815.38
2022-10-11T07:51:25.489Z,96821.44
2022-10-11T07:53:57.010Z,96821.22
2022-10-11T07:56:29.201Z,96826.78
2022-10-11T07:59:01.710Z,96823.06
2022-10-11T08:01:31.681Z,96826.25
2022-10-11T08:03:59.768Z,96829.16
2022-10-11T08:06:31.911Z,96830.47
2022-10-11T08:09:00.999Z,96830.72
2022-10-11T08:11:31.576Z,96833.63
2022-10-11T08:13:59.343Z,96831.75
2022-10-11T08:16:26.653Z,96835.69
2022-10-11T08:18:57.057Z,96843.38
2022-10-11T08:21:24.688Z,96839.41
2022-10-11T08:23:51.729Z,96839.91
2022-10-11T08:26:19.133Z,96845.47
2022-10-11T08:28:46.238Z,96843.09
2022-10-11T08:31:15.144Z,96848.66
2022-10-11T08:33:42.845Z,96848.63
2022-10-11T08:36:10.785Z,96855.00
2022-10-11T08:38:38.228Z,96846.78
2022-10-11T08:41:24.503Z,96853.16
2022-10-11T08:43:58.149Z,96855.00
2022-10-11T08:46:31.313Z,96850.56
2022-10-11T08:49:00.206Z,96854.53
2022-10-11T08:51:38.725Z,96856.09
2022-10-11T08:54:08.222Z,96860.31
2022-10-11T08:56:40.298Z,96853.91
2022-10-11T08:59:24.283Z,96854.44
2022-10-11T09:01:59.612Z,96855.00
2022-10-11T09:04:26.774Z,96859.47
2022-10-11T09:07:27.181Z,96855.72
2022-10-11T09:10:35.840Z,96853.06
2022-10-11T09:13:05.813Z,96856.50
2022-10-11T09:15:48.026Z,96850.72
2022-10-11T09:18:33.898Z,96850.16
2022-10-11T09:21:37.573Z,96839.47
2022-10-11T09:24:31.142Z,96841.47
2022-10-11T09:27:50.415Z,96845.06
2022-10-11T09:30:16.695Z,96849.38
2022-10-11T09:32:47.590Z,96842.16
2022-10-11T09:35:18.633Z,96844.38
2022-10-11T09:38:02.430Z,96842.69
2022-10-11T09:41:23.020Z,96835.13
2022-10-11T09:43:52.087Z,96840.81
2022-10-11T09:46:31.330Z,96845.41
2022-10-11T09:48:59.386Z,96850.00
2022-10-11T09:51:27.769Z,96846.13
2022-10-11T09:54:01.067Z,96842.28
2022-10-11T09:56:31.072Z,96845.38
2022-10-11T09:59:16.784Z,96842.78
2022-10-11T10:01:44.937Z,96845.59
2022-10-11T10:04:13.246Z,96842.91
2022-10-11T10:06:40.801Z,96850.09
2022-10-11T10:09:21.956Z,96843.00
2022-10-11T10:11:49.075Z,96848.19
2022-10-11T10:14:30.522Z,96842.91
2022-10-11T10:17:14.849Z,96852.41
2022-10-11T10:19:49.614Z,96852.72
2022-10-11T10:22:23.592Z,96850.94
2022-10-11T10:24:51.934Z,96854.03
2022-10-11T10:27:24.594Z,96846.88
2022-10-11T10:30:09.935Z,96844.72
2022-10-11T10:33:05.994Z,96852.16
2022-10-11T10:35:45.743Z,96851.38
2022-10-11T10:38:17.389Z,96839.09
2022-10-11T10:40:58.472Z,96844.56
2022-10-11T10:43:30.067Z,96846.84
2022-10-11T10:46:18.216Z,96847.81
2022-10-11T10:49:52.376Z,96837.81
2022-10-11T10:52:27.819Z,96834.72
2022-10-11T10:55:13.421Z,96839.47
2022-10-11T10:58:18.480Z,96844.19
2022-10-11T11:13:36.054Z,96836.22
2022-10-11T11:16:18.867Z,96841.66
2022-10-11T11:18:53.046Z,96833.47
2022-10-11T11:21:53.492Z,96836.22
2022-10-11T11:24:39.014Z,96833.28
2022-10-11T11:27:14.988Z,96825.81
2022-10-11T11:29:56.546Z,96829.31
2022-10-11T11:32:23.513Z,96827.03
2022-10-11T11:34:58.831Z,96823.69
2022-10-11T11:37:32.324Z,96822.69
2022-10-11T11:40:19.154Z,96823.84
2022-10-11T11:42:51.773Z,96824.38
2022-10-11T11:45:23.905Z,96823.63
2022-10-11T11:48:02.335Z,96817.53
2022-10-11T11:50:37.374Z,96813.28
2022-10-11T11:53:12.606Z,96815.81
2022-10-11T11:55:49.483Z,96815.38
2022-10-11T11:58:25.553Z,96802.75
2022-10-11T12:01:05.839Z,96822.75
2022-10-11T12:03:43.100Z,96812.50
2022-10-11T12:06:21.506Z,96814.19
2022-10-11T12:09:02.136Z,96813.22
2022-10-11T12:11:37.555Z,96810.03
2022-10-11T12:14:27.854Z,96803.19
2022-10-11T12:17:09.713Z,96808.47
2022-10-11T12:19:38.794Z,96812.16
2022-10-11T12:22:38.014Z,96810.56
2022-10-11T12:25:14.958Z,96804.59
2022-10-11T12:27:50.423Z,96798.69
2022-10-11T12:30:48.384Z,96807.72
2022-10-11T12:33:45.833Z,96803.16
2022-10-11T12:36:30.956Z,96802.34
2022-10-11T12:39:19.762Z,96802.66
2022-10-11T12:41:49.475Z,96790.22
2022-10-11T12:44:19.366Z,96794.19
2022-10-11T12:46:55.196Z,96788.41
2022-10-11T12:49:33.926Z,96802.19
2022-10-11T12:52:25.292Z,96783.91
2022-10-11T12:55:03.372Z,96791.53
2022-10-11T12:58:04.504Z,96783.69
2022-10-11T13:00:40.533Z,96790.63
2022-10-11T13:03:58.156Z,96785.25
2022-10-11T13:06:29.574Z,96786.75
2022-10-11T13:09:14.035Z,96790.66
2022-10-11T13:11:49.295Z,96792.53
2022-10-11T13:14:20.765Z,96795.34
2022-10-11T13:17:03.666Z,96789.91
2022-10-11T13:19:33.287Z,96784.59
2022-10-11T13:22:04.493Z,96793.13
2022-10-11T13:24:40.316Z,96796.88
2022-10-11T13:27:07.777Z,96785.97
2022-10-11T13:29:41.421Z,96790.44
2022-10-11T13:32:25.078Z,96794.34
2022-10-11T13:34:58.776Z,96784.78
2022-10-11T13:37:27.735Z,96793.94
2022-10-11T13:39:57.457Z,96779.50
2022-10-11T13:42:31.127Z,96790.28
2022-10-11T13:45:00.196Z,96792.91
2022-10-11T13:47:29.937Z,96790.66
2022-10-11T13:50:11.181Z,96779.09
2022-10-11T13:52:51.518Z,96781.97
2022-10-11T13:55:28.367Z,96778.81
2022-10-11T13:57:57.996Z,96783.16
2022-10-11T14:00:30.357Z,96779.88
2022-10-11T14:02:59.664Z,96787.84
2022-10-11T14:05:40.294Z,96794.22
2022-10-11T14:08:37.851Z,96792.84
2022-10-11T14:11:07.039Z,96788.00
2022-10-11T14:13:43.546Z,96787.63
2022-10-11T14:16:11.853Z,96784.50
2022-10-11T14:18:57.918Z,96781.91
2022-10-11T14:21:46.089Z,96793.13
2022-10-11T14:24:14.793Z,96790.44
2022-10-11T14:26:44.685Z,96787.97
2022-10-11T14:29:23.813Z,96786.34
2022-10-11T14:31:51.257Z,96785.53
2022-10-11T14:34:23.282Z,96784.25
2022-10-11T14:36:50.910Z,96785.28
2022-10-11T14:39:20.950Z,96796.38
2022-10-11T14:41:47.948Z,96793.22
2022-10-11T14:44:16.942Z,96789.66
2022-10-11T14:46:45.232Z,96792.69
2022-10-11T14:49:21.644Z,96788.53
2022-10-11T14:51:50.034Z,96792.19
2022-10-11T14:54:25.177Z,96791.00
2022-10-11T14:56:53.639Z,96786.94
2022-10-11T14:59:23.647Z,96787.75
2022-10-11T15:01:54.595Z,96790.31
2022-10-11T15:04:22.920Z,96796.25
2022-10-11T15:06:51.262Z,96801.88
2022-10-11T15:09:21.078Z,96800.81
2022-10-11T15:11:49.275Z,96799.91
2022-10-11T15:14:16.425Z,96807.19
2022-10-11T15:16:43.485Z,96804.91
2022-10-11T15:19:15.943Z,96807.91
2022-10-11T15:21:43.068Z,96806.41
2022-10-11T15:24:10.028Z,96809.38
2022-10-11T15:26:37.356Z,96812.97
2022-10-11T15:29:04.886Z,96812.88
2022-10-11T15:31:31.893Z,96809.50
2022-10-11T15:33:59.813Z,96806.88
2022-10-11T15:36:26.770Z,96812.00
2022-10-11T15:38:53.715Z,96811.28
2022-10-11T15:41:20.833Z,96809.28
2022-10-11T15:43:49.036Z,96809.34
2022-10-11T15:46:19.916Z,96819.53
2022-10-11T15:48:47.712Z,96820.75
2022-10-11T15:51:15.902Z,96818.72
2022-10-11T15:53:42.874Z,96816.63
2022-10-11T15:56:15.485Z,96826.78
2022-10-11T15:58:43.141Z,96833.56
2022-10-11T16:01:17.546Z,96827.59
2022-10-11T16:03:45.894Z,96828.19
2022-10-11T16:06:13.512Z,96828.81
2022-10-11T16:08:40.736Z,96836.31
2022-10-11T16:11:09.493Z,96831.84
2022-10-11T16:13:36.977Z,96836.91
2022-10-11T16:16:06.245Z,96844.38
2022-10-11T16:18:35.741Z,96846.53
2022-10-11T16:21:09.650Z,96850.25
2022-10-11T16:23:39.015Z,96850.00
2022-10-11T16:26:09.284Z,96853.47
2022-10-11T16:28:37.911Z,96856.16
2022-10-11T16:31:14.511Z,96857.22
2022-10-11T16:33:47.952Z,96863.88
2022-10-11T16:36:32.950Z,96869.47
2022-10-11T16:39:01.413Z,96869.25
2022-10-11T16:41:28.328Z,96862.63
2022-10-11T16:43:56.265Z,96871.44
2022-10-11T16:46:23.306Z,96868.50
2022-10-11T16:48:50.599Z,96873.34
2022-10-11T16:51:17.573Z,96877.56
2022-10-11T16:53:44.505Z,96880.00
2022-10-11T16:56:12.105Z,96888.06
2022-10-11T16:58:39.129Z,96888.31
2022-10-11T17:01:10.878Z,96893.09
2022-10-11T17:03:38.541Z,96895.84
2022-10-11T17:06:07.134Z,96897.97
2022-10-11T17:08:35.477Z,96903.31
2022-10-11T17:11:03.124Z,96908.09
2022-10-11T17:13:30.495Z,96918.19
2022-10-11T17:15:57.443Z,96925.91
2022-10-11T17:18:24.922Z,96923.06
2022-10-11T17:21:01.404Z,96920.44
2022-10-11T17:23:28.825Z,96927.88
2022-10-11T17:25:55.872Z,96927.59
2022-10-11T17:28:22.983Z,96929.19
2022-10-11T17:30:57.494Z,96937.47
2022-10-11T17:33:26.630Z,96933.22
2022-10-11T17:35:59.161Z,96935.09
2022-10-11T17:38:29.570Z,96932.94
2022-10-11T17:41:05.622Z,96940.09
2022-10-11T17:43:32.894Z,96938.28
2022-10-11T17:46:02.199Z,96943.03
2022-10-11T17:48:29.498Z,96937.72
2022-10-11T17:50:56.571Z,96937.47
2022-10-11T17:53:23.865Z,96938.53
2022-10-11T17:55:51.355Z,96944.34
2022-10-11T17:58:18.654Z,96942.50
2022-10-11T18:00:45.690Z,96945.41
2022-10-11T18:03:12.715Z,96939.31
2022-10-11T18:05:41.282Z,96941.47
2022-10-11T18:08:09.128Z,96937.72
2022-10-11T18:10:37.575Z,96941.72
2022-10-11T18:13:06.826Z,96929.00
2022-10-11T18:15:34.223Z,96933.75
2022-10-11T18:18:01.362Z,96940.94
2022-10-11T18:20:28.373Z,96940.13
2022-10-11T18:22:55.414Z,96938.81
2022-10-11T18:25:22.492Z,96933.75
2022-10-11T18:27:50.635Z,96938.53
2022-10-11T18:30:17.594Z,96946.47
2022-10-11T18:32:44.643Z,96943.03
2022-10-11T18:35:11.686Z,96941.44
2022-10-11T18:37:38.753Z,96940.09
2022-10-11T18:40:06.154Z,96934.25
2022-10-11T18:42:33.278Z,96936.09
2022-10-11T18:45:00.290Z,96926.81
2022-10-11T18:47:28.039Z,96934.53
2022-10-11T18:49:55.125Z,96927.88
2022-10-11T18:52:22.195Z,96929.22
2022-10-11T18:54:49.464Z,96927.34
2022-10-11T18:57:16.463Z,96933.97
2022-10-11T18:59:43.470Z,96933.19
2022-10-11T19:02:12.130Z,96936.88
2022-10-11T19:04:39.965Z,96944.81
2022-10-11T19:07:07.073Z,96935.28
2022-10-11T19:09:34.377Z,96937.41
2022-10-11T19:12:01.653Z,96935.28
2022-10-11T19:14:30.993Z,96946.66
2022-10-11T19:17:01.191Z,96936.63
2022-10-11T19:19:29.877Z,96942.97
2022-10-11T19:21:57.394Z,96938.97
2022-10-11T19:24:26.735Z,96941.59
2022-10-11T19:26:57.355Z,96944.53
2022-10-11T19:29:29.422Z,96946.88
2022-10-11T19:31:58.995Z,96946.84
2022-10-11T19:34:27.825Z,96951.88
2022-10-11T19:36:55.672Z,96951.59
2022-10-11T19:39:25.952Z,96957.63
2022-10-11T19:41:54.091Z,96952.31
2022-10-11T19:44:21.117Z,96959.69
2022-10-11T19:46:52.458Z,96952.84
2022-10-11T19:49:22.929Z,96965.22
2022-10-11T19:51:50.520Z,96953.34
2022-10-11T19:54:17.973Z,96961.50
2022-10-11T19:56:45.192Z,96959.38
2022-10-11T19:59:13.274Z,96959.88
2022-10-11T20:01:41.389Z,96961.41
2022-10-11T20:04:27.413Z,96962.44
2022-10-11T20:06:54.851Z,96965.88
2022-10-11T20:09:29.637Z,96960.84
2022-10-11T20:11:57.238Z,96970.59
2022-10-11T20:14:24.435Z,96968.75
2022-10-11T20:16:51.559Z,96968.19
2022-10-11T20:19:19.003Z,96964.44
2022-10-11T20:21:46.132Z,96969.22
2022-10-11T20:24:13.321Z,96970.25
2022-10-11T20:26:40.515Z,96969.69
2022-10-11T20:29:07.533Z,96965.94
2022-10-11T20:31:38.649Z,96971.75
2022-10-11T20:34:07.655Z,96974.34
2022-10-11T20:36:36.375Z,96976.47
2022-10-11T20:39:05.394Z,96965.59
2022-10-11T20:41:40.026Z,96971.88
2022-10-11T20:44:08.475Z,96967.72
2022-10-11T20:46:38.065Z,96965.81
2022-10-11T20:49:08.173Z,96975.00
2022-10-11T20:51:37.814Z,96975.06
2022-10-11T20:54:05.299Z,96978.22
2022-10-11T20:56:32.662Z,96979.00
2022-10-11T20:58:59.806Z,96967.88
2022-10-11T21:01:35.391Z,96977.16
2022-10-11T21:04:04.686Z,96978.75
2022-10-11T21:06:33.002Z,96981.09
2022-10-11T21:09:00.331Z,96977.13
2022-10-11T21:11:29.032Z,96972.41
2022-10-11T21:13:57.388Z,96971.59
2022-10-11T21:16:24.725Z,96975.28
2022-10-11T21:18:53.227Z,96981.38
2022-10-11T21:21:20.986Z,96979.53
2022-10-11T21:23:48.015Z,96977.97
2022-10-11T21:26:18.217Z,96979.00
2022-10-11T21:28:46.587Z,96975.56
2022-10-11T21:31:17.165Z,96971.88
2022-10-11T21:33:45.158Z,96980.84
2022-10-11T21:36:16.193Z,96971.09
2022-10-11T21:38:43.695Z,96975.81
2022-10-11T21:41:13.466Z,96973.97
2022-10-11T21:43:40.679Z,96979.81
2022-10-11T21:46:10.536Z,96976.13
2022-10-11T21:48:37.631Z,96967.88
2022-10-11T21:51:04.707Z,96977.41
2022-10-11T21:53:31.921Z,96967.66
2022-10-11T21:56:00.753Z,96974.78
2022-10-11T21:58:28.573Z,96971.59
2022-10-11T22:00:55.605Z,96969.50
2022-10-11T22:03:22.630Z,96973.19
2022-10-11T22:05:49.656Z,96968.69
2022-10-11T22:08:16.669Z,96966.31
2022-10-11T22:10:53.254Z,96964.44
2022-10-11T22:13:20.237Z,96966.31
2022-10-11T22:15:47.261Z,96973.19
2022-10-11T22:18:14.255Z,96968.16
2022-10-11T22:20:41.518Z,96970.81
2022-10-11T22:23:08.507Z,96970.81
2022-10-11T22:25:36.433Z,96964.72
2022-10-11T22:28:04.933Z,96967.13
2022-10-11T22:30:32.223Z,96964.44
2022-10-11T22:32:59.248Z,96964.72
2022-10-11T22:35:26.314Z,96965.22
2022-10-11T22:37:53.454Z,96969.72
2022-10-11T22:40:21.336Z,96964.16
2022-10-11T22:42:48.397Z,96964.19
2022-10-11T22:45:15.514Z,96964.72
2022-10-11T22:47:42.474Z,96956.56
2022-10-11T22:50:09.906Z,96961.31
2022-10-11T22:52:36.906Z,96961.88
2022-10-11T22:55:04.053Z,96963.75
2022-10-11T22:57:31.268Z,96958.22
2022-10-11T22:59:58.239Z,96956.91
2022-10-11T23:02:25.212Z,96958.78
2022-10-11T23:04:54.053Z,96958.00
2022-10-11T23:07:20.984Z,96955.66
2022-10-11T23:09:47.913Z,96954.84
2022-10-11T23:12:15.023Z,96960.66
2022-10-11T23:14:42.051Z,96956.19
2022-10-11T23:17:08.994Z,96967.59
2022-10-11T23:19:37.261Z,96961.75
2022-10-11T23:22:04.104Z,96960.16
2022-10-11T23:24:31.063Z,96969.69
2022-10-11T23:26:58.123Z,96964.38
2022-10-11T23:29:25.143Z,96969.66
2022-10-11T23:31:52.103Z,96969.34
2022-10-11T23:34:19.143Z,96970.16
2022-10-11T23:36:46.206Z,96967.22
2022-10-11T23:39:13.390Z,96967.50
2022-10-11T23:41:40.363Z,96975.91
2022-10-11T23:44:07.703Z,96973.81
2022-10-11T23:46:34.725Z,96971.19
2022-10-11T23:49:01.763Z,96970.34
2022-10-11T23:51:28.783Z,96972.19
2022-10-11T23:53:55.985Z,96973.75
2022-10-11T23:56:23.185Z,96984.31
2022-10-11T23:58:50.284Z,96979.84
